sensor_id;sensor_type;location;lat;lon;timestamp;temperature;humidity
40816;DHT22;26535;48.788;9.214;2023-05-10T05:03:43;13.80;99.90
40816;DHT22;26535;48.788;9.214;2023-05-10T05:06:08;13.80;99.90
40816;DHT22;26535;48.788;9.214;2023-05-10T05:08:34;13.90;99.90
40816;DHT22;26535;48.788;9.214;2023-05-10T05:11:00;13.90;99.90
40816;DHT22;26535;48.788;9.214;2023-05-10T05:13:26;14.00;99.90
40816;DHT22;26535;48.788;9.214;2023-05-10T05:15:51;14.00;99.90
40816;DHT22;26535;48.788;9.214;2023-05-10T05:18:17;14.10;99.90
40816;DHT22;26535;48.788;9.214;2023-05-10T05:20:43;14.20;99.90
40816;DHT22;26535;48.788;9.214;2023-05-10T05:23:08;14.30;99.90
40816;DHT22;26535;48.788;9.214;2023-05-10T05:25:34;14.30;99.90
40816;DHT22;26535;48.788;9.214;2023-05-10T05:28:00;14.30;99.90
40816;DHT22;26535;48.788;9.214;2023-05-10T05:30:26;14.40;99.90
40816;DHT22;26535;48.788;9.214;2023-05-10T05:32:52;14.40;99.90
40816;DHT22;26535;48.788;9.214;2023-05-10T05:35:18;14.40;99.90
40816;DHT22;26535;48.788;9.214;2023-05-10T05:37:44;14.40;99.90
40816;DHT22;26535;48.788;9.214;2023-05-10T05:40:12;14.60;99.90
40816;DHT22;26535;48.788;9.214;2023-05-10T05:42:38;14.60;99.90
40816;DHT22;26535;48.788;9.214;2023-05-10T05:45:04;14.70;99.90
40816;DHT22;26535;48.788;9.214;2023-05-10T05:47:30;14.70;99.90
40816;DHT22;26535;48.788;9.214;2023-05-10T05:49:56;14.80;99.90
40816;DHT22;26535;48.788;9.214;2023-05-10T05:52:22;14.80;99.90
40816;DHT22;26535;48.788;9.214;2023-05-10T05:54:47;14.80;99.90
40816;DHT22;26535;48.788;9.214;2023-05-10T05:57:13;14.90;99.90
40816;DHT22;26535;48.788;9.214;2023-05-10T05:59:39;15.00;99.90
40816;DHT22;26535;48.788;9.214;2023-05-10T06:02:09;15.00;99.90
40816;DHT22;26535;48.788;9.214;2023-05-10T06:04:35;15.00;99.90
40816;DHT22;26535;48.788;9.214;2023-05-10T06:07:01;15.00;99.90
40816;DHT22;26535;48.788;9.214;2023-05-10T06:09:26;15.00;99.90
40816;DHT22;26535;48.788;9.214;2023-05-10T06:11:52;14.90;99.90
40816;DHT22;26535;48.788;9.214;2023-05-10T06:14:20;14.90;99.90
40816;DHT22;26535;48.788;9.214;2023-05-10T06:16:46;15.00;99.90
40816;DHT22;26535;48.788;9.214;2023-05-10T06:19:12;15.10;99.90
40816;DHT22;26535;48.788;9.214;2023-05-10T06:21:38;15.20;99.90
40816;DHT22;26535;48.788;9.214;2023-05-10T06:24:03;15.20;99.90
40816;DHT22;26535;48.788;9.214;2023-05-10T06:26:30;15.30;99.90
40816;DHT22;26535;48.788;9.214;2023-05-10T06:28:56;15.40;99.90
40816;DHT22;26535;48.788;9.214;2023-05-10T06:31:22;15.40;99.90
40816;DHT22;26535;48.788;9.214;2023-05-10T06:33:47;15.50;99.90
40816;DHT22;26535;48.788;9.214;2023-05-10T06:36:13;15.40;99.90
40816;DHT22;26535;48.788;9.214;2023-05-10T06:38:39;15.30;99.90
40816;DHT22;26535;48.788;9.214;2023-05-10T06:41:05;15.20;99.90
40816;DHT22;26535;48.788;9.214;2023-05-10T06:43:31;15.10;99.90
40816;DHT22;26535;48.788;9.214;2023-05-10T06:45:57;15.10;99.90
40816;DHT22;26535;48.788;9.214;2023-05-10T06:48:23;15.20;99.90
40816;DHT22;26535;48.788;9.214;2023-05-10T06:50:48;15.20;99.90
40816;DHT22;26535;48.788;9.214;2023-05-10T06:53:14;15.20;99.90
40816;DHT22;26535;48.788;9.214;2023-05-10T06:55:40;15.20;99.90
40816;DHT22;26535;48.788;9.214;2023-05-10T06:58:06;15.30;99.90
40816;DHT22;26535;48.788;9.214;2023-05-10T07:00:32;15.30;99.90
40816;DHT22;26535;48.788;9.214;2023-05-10T07:02:57;15.20;99.90
40816;DHT22;26535;48.788;9.214;2023-05-10T07:05:23;15.20;99.90
40816;DHT22;26535;48.788;9.214;2023-05-10T07:07:49;15.30;99.90
40816;DHT22;26535;48.788;9.214;2023-05-10T07:10:15;15.30;99.90
40816;DHT22;26535;48.788;9.214;2023-05-10T07:12:41;15.40;99.90
40816;DHT22;26535;48.788;9.214;2023-05-10T07:15:07;15.60;99.90
40816;DHT22;26535;48.788;9.214;2023-05-10T07:17:33;15.80;99.90
40816;DHT22;26535;48.788;9.214;2023-05-10T07:19:59;16.00;99.90
40816;DHT22;26535;48.788;9.214;2023-05-10T07:22:25;16.00;99.90
40816;DHT22;26535;48.788;9.214;2023-05-10T07:24:51;16.10;99.90
40816;DHT22;26535;48.788;9.214;2023-05-10T07:27:17;16.20;99.90
40816;DHT22;26535;48.788;9.214;2023-05-10T07:29:42;16.50;99.90
40816;DHT22;26535;48.788;9.214;2023-05-10T07:32:08;16.70;99.90
40816;DHT22;26535;48.788;9.214;2023-05-10T07:34:34;16.80;99.90
40816;DHT22;26535;48.788;9.214;2023-05-10T07:37:00;16.90;99.90
40816;DHT22;26535;48.788;9.214;2023-05-10T07:39:27;16.70;99.90
40816;DHT22;26535;48.788;9.214;2023-05-10T07:41:53;16.60;99.90
40816;DHT22;26535;48.788;9.214;2023-05-10T07:44:19;16.80;99.90
40816;DHT22;26535;48.788;9.214;2023-05-10T07:46:46;16.80;99.90
40816;DHT22;26535;48.788;9.214;2023-05-10T07:49:12;16.80;99.90
40816;DHT22;26535;48.788;9.214;2023-05-10T07:51:38;17.00;99.90
40816;DHT22;26535;48.788;9.214;2023-05-10T07:54:04;17.00;99.90
40816;DHT22;26535;48.788;9.214;2023-05-10T07:56:31;17.20;99.90
40816;DHT22;26535;48.788;9.214;2023-05-10T07:59:00;17.20;99.90
40816;DHT22;26535;48.788;9.214;2023-05-10T08:01:30;17.30;99.90
40816;DHT22;26535;48.788;9.214;2023-05-10T08:03:56;17.50;99.90
40816;DHT22;26535;48.788;9.214;2023-05-10T08:06:22;17.50;99.90
40816;DHT22;26535;48.788;9.214;2023-05-10T08:08:48;17.50;99.90
40816;DHT22;26535;48.788;9.214;2023-05-10T08:11:16;17.40;99.90
40816;DHT22;26535;48.788;9.214;2023-05-10T08:13:43;17.30;99.90
40816;DHT22;26535;48.788;9.214;2023-05-10T08:16:09;17.20;99.90
40816;DHT22;26535;48.788;9.214;2023-05-10T08:18:35;17.20;99.90
40816;DHT22;26535;48.788;9.214;2023-05-10T08:21:00;17.00;99.90
40816;DHT22;26535;48.788;9.214;2023-05-10T08:23:26;16.90;99.90
40816;DHT22;26535;48.788;9.214;2023-05-10T08:25:52;16.90;99.90
40816;DHT22;26535;48.788;9.214;2023-05-10T08:28:17;17.00;99.90
40816;DHT22;26535;48.788;9.214;2023-05-10T08:30:44;17.10;99.90
40816;DHT22;26535;48.788;9.214;2023-05-10T08:33:10;17.00;99.90
40816;DHT22;26535;48.788;9.214;2023-05-10T08:35:36;17.00;99.90
40816;DHT22;26535;48.788;9.214;2023-05-10T08:38:02;17.10;99.90
40816;DHT22;26535;48.788;9.214;2023-05-10T08:40:28;17.30;99.90
40816;DHT22;26535;48.788;9.214;2023-05-10T08:42:58;17.30;99.90
40816;DHT22;26535;48.788;9.214;2023-05-10T08:45:30;17.20;99.90
40816;DHT22;26535;48.788;9.214;2023-05-10T08:47:58;17.20;99.90
40816;DHT22;26535;48.788;9.214;2023-05-10T08:50:25;17.40;99.90
40816;DHT22;26535;48.788;9.214;2023-05-10T08:52:53;17.50;99.90
40816;DHT22;26535;48.788;9.214;2023-05-10T08:55:20;17.60;99.90
40816;DHT22;26535;48.788;9.214;2023-05-10T08:57:48;17.80;99.90
40816;DHT22;26535;48.788;9.214;2023-05-10T09:00:15;18.10;99.90
40816;DHT22;26535;48.788;9.214;2023-05-10T09:02:43;18.30;99.90
40816;DHT22;26535;48.788;9.214;2023-05-10T09:05:08;18.40;99.90
40816;DHT22;26535;48.788;9.214;2023-05-10T09:07:36;18.40;99.90
40816;DHT22;26535;48.788;9.214;2023-05-10T09:10:02;18.50;99.90
40816;DHT22;26535;48.788;9.214;2023-05-10T09:12:28;18.40;99.90
40816;DHT22;26535;48.788;9.214;2023-05-10T09:14:55;18.60;99.90
40816;DHT22;26535;48.788;9.214;2023-05-10T09:17:24;18.90;99.90
40816;DHT22;26535;48.788;9.214;2023-05-10T09:19:50;19.00;99.40
40816;DHT22;26535;48.788;9.214;2023-05-10T09:22:22;19.00;98.60
40816;DHT22;26535;48.788;9.214;2023-05-10T09:24:48;19.00;98.60
40816;DHT22;26535;48.788;9.214;2023-05-10T09:27:28;18.70;98.70
40816;DHT22;26535;48.788;9.214;2023-05-10T09:29:54;18.80;98.50
40816;DHT22;26535;48.788;9.214;2023-05-10T09:32:20;18.20;97.80
40816;DHT22;26535;48.788;9.214;2023-05-10T09:34:49;17.90;98.60
40816;DHT22;26535;48.788;9.214;2023-05-10T09:37:15;17.60;99.30
40816;DHT22;26535;48.788;9.214;2023-05-10T09:39:41;17.80;98.90
40816;DHT22;26535;48.788;9.214;2023-05-10T09:42:08;18.00;98.90
40816;DHT22;26535;48.788;9.214;2023-05-10T09:44:34;18.30;98.50
40816;DHT22;26535;48.788;9.214;2023-05-10T09:47:01;18.60;98.00
40816;DHT22;26535;48.788;9.214;2023-05-10T09:49:27;18.90;97.50
40816;DHT22;26535;48.788;9.214;2023-05-10T09:52:04;19.20;97.20
40816;DHT22;26535;48.788;9.214;2023-05-10T09:54:30;19.30;96.40
40816;DHT22;26535;48.788;9.214;2023-05-10T09:56:56;19.40;96.70
40816;DHT22;26535;48.788;9.214;2023-05-10T09:59:25;19.70;96.20
40816;DHT22;26535;48.788;9.214;2023-05-10T10:01:52;19.50;96.30
40816;DHT22;26535;48.788;9.214;2023-05-10T10:04:19;19.70;95.60
40816;DHT22;26535;48.788;9.214;2023-05-10T10:06:46;19.50;95.50
40816;DHT22;26535;48.788;9.214;2023-05-10T10:09:12;19.20;95.60
40816;DHT22;26535;48.788;9.214;2023-05-10T10:11:39;19.00;96.10
40816;DHT22;26535;48.788;9.214;2023-05-10T10:14:06;18.90;96.30
40816;DHT22;26535;48.788;9.214;2023-05-10T10:16:32;18.40;97.00
40816;DHT22;26535;48.788;9.214;2023-05-10T10:18:58;18.30;97.60
40816;DHT22;26535;48.788;9.214;2023-05-10T10:21:24;18.30;98.30
40816;DHT22;26535;48.788;9.214;2023-05-10T10:23:50;18.40;99.10
40816;DHT22;26535;48.788;9.214;2023-05-10T10:26:17;18.60;97.60
40816;DHT22;26535;48.788;9.214;2023-05-10T10:29:14;18.80;97.70
40816;DHT22;26535;48.788;9.214;2023-05-10T10:31:57;19.10;96.60
40816;DHT22;26535;48.788;9.214;2023-05-10T10:34:27;19.40;96.10
40816;DHT22;26535;48.788;9.214;2023-05-10T10:36:55;19.50;96.00
40816;DHT22;26535;48.788;9.214;2023-05-10T10:39:21;19.90;95.60
40816;DHT22;26535;48.788;9.214;2023-05-10T10:41:53;20.00;94.60
40816;DHT22;26535;48.788;9.214;2023-05-10T10:44:24;20.00;94.70
40816;DHT22;26535;48.788;9.214;2023-05-10T10:49:43;20.30;94.10
40816;DHT22;26535;48.788;9.214;2023-05-10T10:52:34;20.00;95.00
40816;DHT22;26535;48.788;9.214;2023-05-10T10:55:20;19.70;96.20
40816;DHT22;26535;48.788;9.214;2023-05-10T10:57:52;19.60;96.30
40816;DHT22;26535;48.788;9.214;2023-05-10T11:02:55;19.40;95.20
40816;DHT22;26535;48.788;9.214;2023-05-10T11:08:00;18.90;94.20
40816;DHT22;26535;48.788;9.214;2023-05-10T11:10:26;18.80;94.20
40816;DHT22;26535;48.788;9.214;2023-05-10T11:12:59;18.90;94.30
40816;DHT22;26535;48.788;9.214;2023-05-10T11:15:32;18.60;92.90
40816;DHT22;26535;48.788;9.214;2023-05-10T11:17:58;18.10;93.70
40816;DHT22;26535;48.788;9.214;2023-05-10T11:20:27;17.90;93.50
40816;DHT22;26535;48.788;9.214;2023-05-10T11:23:11;17.90;93.60
40816;DHT22;26535;48.788;9.214;2023-05-10T11:25:45;17.80;94.00
40816;DHT22;26535;48.788;9.214;2023-05-10T11:28:11;17.70;94.00
40816;DHT22;26535;48.788;9.214;2023-05-10T11:30:41;17.80;94.50
40816;DHT22;26535;48.788;9.214;2023-05-10T11:33:09;17.80;94.70
40816;DHT22;26535;48.788;9.214;2023-05-10T11:35:38;17.70;94.90
40816;DHT22;26535;48.788;9.214;2023-05-10T11:38:12;17.80;94.80
40816;DHT22;26535;48.788;9.214;2023-05-10T11:40:39;18.00;94.80
40816;DHT22;26535;48.788;9.214;2023-05-10T11:43:05;18.50;94.70
40816;DHT22;26535;48.788;9.214;2023-05-10T11:45:34;18.50;94.40
40816;DHT22;26535;48.788;9.214;2023-05-10T11:48:01;18.70;93.80
40816;DHT22;26535;48.788;9.214;2023-05-10T11:50:27;19.20;93.30
40816;DHT22;26535;48.788;9.214;2023-05-10T11:52:55;19.10;92.90
40816;DHT22;26535;48.788;9.214;2023-05-10T11:55:21;18.80;92.00
40816;DHT22;26535;48.788;9.214;2023-05-10T11:57:46;18.50;92.70
40816;DHT22;26535;48.788;9.214;2023-05-10T12:00:13;18.30;93.30
40816;DHT22;26535;48.788;9.214;2023-05-10T12:02:41;18.20;93.90
40816;DHT22;26535;48.788;9.214;2023-05-10T12:05:07;18.10;93.50
40816;DHT22;26535;48.788;9.214;2023-05-10T12:07:33;17.90;94.00
40816;DHT22;26535;48.788;9.214;2023-05-10T12:10:10;17.90;94.20
40816;DHT22;26535;48.788;9.214;2023-05-10T12:12:46;18.00;94.20
40816;DHT22;26535;48.788;9.214;2023-05-10T12:15:21;18.00;93.70
40816;DHT22;26535;48.788;9.214;2023-05-10T12:17:47;17.80;94.00
40816;DHT22;26535;48.788;9.214;2023-05-10T12:20:19;17.90;93.80
40816;DHT22;26535;48.788;9.214;2023-05-10T12:22:56;17.90;94.00
40816;DHT22;26535;48.788;9.214;2023-05-10T12:25:24;17.90;94.10
40816;DHT22;26535;48.788;9.214;2023-05-10T12:27:54;17.90;93.90
40816;DHT22;26535;48.788;9.214;2023-05-10T12:30:25;18.00;94.10
40816;DHT22;26535;48.788;9.214;2023-05-10T12:32:52;18.40;93.90
40816;DHT22;26535;48.788;9.214;2023-05-10T12:35:18;18.30;93.80
40816;DHT22;26535;48.788;9.214;2023-05-10T12:37:48;18.80;93.60
40816;DHT22;26535;48.788;9.214;2023-05-10T12:40:13;18.90;93.20
40816;DHT22;26535;48.788;9.214;2023-05-10T12:42:39;19.00;93.20
40816;DHT22;26535;48.788;9.214;2023-05-10T12:45:06;19.00;91.50
40816;DHT22;26535;48.788;9.214;2023-05-10T12:47:33;19.00;91.10
40816;DHT22;26535;48.788;9.214;2023-05-10T12:50:00;19.00;90.70
40816;DHT22;26535;48.788;9.214;2023-05-10T12:52:26;18.80;90.40
40816;DHT22;26535;48.788;9.214;2023-05-10T12:54:52;18.50;90.70
40816;DHT22;26535;48.788;9.214;2023-05-10T12:57:19;18.60;91.00
40816;DHT22;26535;48.788;9.214;2023-05-10T12:59:45;18.70;90.80
40816;DHT22;26535;48.788;9.214;2023-05-10T13:02:11;18.40;91.20
40816;DHT22;26535;48.788;9.214;2023-05-10T13:04:37;18.30;91.50
40816;DHT22;26535;48.788;9.214;2023-05-10T13:07:08;18.00;91.90
40816;DHT22;26535;48.788;9.214;2023-05-10T13:09:34;18.00;92.30
40816;DHT22;26535;48.788;9.214;2023-05-10T13:12:00;17.90;92.90
40816;DHT22;26535;48.788;9.214;2023-05-10T13:14:26;17.70;92.80
40816;DHT22;26535;48.788;9.214;2023-05-10T13:16:52;17.60;93.20
40816;DHT22;26535;48.788;9.214;2023-05-10T13:19:18;17.50;93.20
40816;DHT22;26535;48.788;9.214;2023-05-10T13:21:44;17.50;93.70
40816;DHT22;26535;48.788;9.214;2023-05-10T13:24:10;17.50;94.10
40816;DHT22;26535;48.788;9.214;2023-05-10T13:26:39;17.60;93.60
40816;DHT22;26535;48.788;9.214;2023-05-10T13:29:05;17.80;94.10
40816;DHT22;26535;48.788;9.214;2023-05-10T13:31:31;18.10;93.50
40816;DHT22;26535;48.788;9.214;2023-05-10T13:33:57;18.10;91.90
40816;DHT22;26535;48.788;9.214;2023-05-10T13:36:22;18.10;91.80
40816;DHT22;26535;48.788;9.214;2023-05-10T13:38:48;18.30;91.90
40816;DHT22;26535;48.788;9.214;2023-05-10T13:41:14;18.90;91.50
40816;DHT22;26535;48.788;9.214;2023-05-10T13:43:40;19.10;91.40
40816;DHT22;26535;48.788;9.214;2023-05-10T13:46:05;19.30;91.20
40816;DHT22;26535;48.788;9.214;2023-05-10T13:48:31;19.50;90.60
40816;DHT22;26535;48.788;9.214;2023-05-10T13:50:57;19.60;90.10
40816;DHT22;26535;48.788;9.214;2023-05-10T13:53:22;19.60;90.00
40816;DHT22;26535;48.788;9.214;2023-05-10T13:55:48;19.40;90.10
40816;DHT22;26535;48.788;9.214;2023-05-10T13:58:14;19.30;90.80
40816;DHT22;26535;48.788;9.214;2023-05-10T14:00:40;19.10;90.60
40816;DHT22;26535;48.788;9.214;2023-05-10T14:03:06;18.90;90.80
40816;DHT22;26535;48.788;9.214;2023-05-10T14:05:32;18.80;91.50
40816;DHT22;26535;48.788;9.214;2023-05-10T14:07:58;18.70;91.70
40816;DHT22;26535;48.788;9.214;2023-05-10T14:10:23;18.70;91.20
40816;DHT22;26535;48.788;9.214;2023-05-10T14:12:50;18.70;90.70
40816;DHT22;26535;48.788;9.214;2023-05-10T14:15:16;19.00;90.70
40816;DHT22;26535;48.788;9.214;2023-05-10T14:17:41;19.30;90.50
40816;DHT22;26535;48.788;9.214;2023-05-10T14:20:07;19.20;86.30
40816;DHT22;26535;48.788;9.214;2023-05-10T14:22:34;19.30;86.10
40816;DHT22;26535;48.788;9.214;2023-05-10T14:25:00;19.50;88.00
40816;DHT22;26535;48.788;9.214;2023-05-10T14:27:26;19.60;86.70
40816;DHT22;26535;48.788;9.214;2023-05-10T14:29:51;19.50;84.50
40816;DHT22;26535;48.788;9.214;2023-05-10T14:32:18;19.80;83.40
40816;DHT22;26535;48.788;9.214;2023-05-10T14:34:44;19.90;83.80
40816;DHT22;26535;48.788;9.214;2023-05-10T14:37:10;19.80;83.70
40816;DHT22;26535;48.788;9.214;2023-05-10T14:39:37;20.20;83.80
40816;DHT22;26535;48.788;9.214;2023-05-10T14:42:03;20.00;83.40
40816;DHT22;26535;48.788;9.214;2023-05-10T14:44:29;19.70;84.20
40816;DHT22;26535;48.788;9.214;2023-05-10T14:46:55;19.80;84.00
40816;DHT22;26535;48.788;9.214;2023-05-10T14:49:22;19.80;85.40
40816;DHT22;26535;48.788;9.214;2023-05-10T14:51:48;19.70;84.80
40816;DHT22;26535;48.788;9.214;2023-05-10T14:54:14;19.70;84.00
40816;DHT22;26535;48.788;9.214;2023-05-10T14:56:39;19.60;85.40
40816;DHT22;26535;48.788;9.214;2023-05-10T14:59:07;19.80;85.20
40816;DHT22;26535;48.788;9.214;2023-05-10T15:01:33;19.70;83.90
40816;DHT22;26535;48.788;9.214;2023-05-10T15:04:00;19.60;84.80
40816;DHT22;26535;48.788;9.214;2023-05-10T15:06:33;19.50;84.70
40816;DHT22;26535;48.788;9.214;2023-05-10T15:09:00;19.70;85.00
40816;DHT22;26535;48.788;9.214;2023-05-10T15:11:27;19.80;84.60
40816;DHT22;26535;48.788;9.214;2023-05-10T15:13:53;20.00;85.10
40816;DHT22;26535;48.788;9.214;2023-05-10T15:16:18;20.00;84.40
40816;DHT22;26535;48.788;9.214;2023-05-10T15:18:45;19.90;84.70
40816;DHT22;26535;48.788;9.214;2023-05-10T15:21:11;19.80;84.70
40816;DHT22;26535;48.788;9.214;2023-05-10T15:23:37;19.80;84.30
40816;DHT22;26535;48.788;9.214;2023-05-10T15:26:03;19.40;85.10
40816;DHT22;26535;48.788;9.214;2023-05-10T15:28:29;19.50;86.20
40816;DHT22;26535;48.788;9.214;2023-05-10T15:30:55;19.60;86.90
40816;DHT22;26535;48.788;9.214;2023-05-10T15:33:21;19.60;85.40
40816;DHT22;26535;48.788;9.214;2023-05-10T15:35:47;19.60;85.70
40816;DHT22;26535;48.788;9.214;2023-05-10T15:38:13;19.60;86.30
40816;DHT22;26535;48.788;9.214;2023-05-10T15:40:39;19.70;86.90
40816;DHT22;26535;48.788;9.214;2023-05-10T15:43:04;19.80;86.80
40816;DHT22;26535;48.788;9.214;2023-05-10T15:45:33;19.80;84.70
40816;DHT22;26535;48.788;9.214;2023-05-10T15:47:58;19.70;85.40
40816;DHT22;26535;48.788;9.214;2023-05-10T15:50:24;19.80;85.10
40816;DHT22;26535;48.788;9.214;2023-05-10T15:52:50;20.10;85.70
40816;DHT22;26535;48.788;9.214;2023-05-10T15:55:16;20.20;85.50
40816;DHT22;26535;48.788;9.214;2023-05-10T15:57:43;20.40;85.60
40816;DHT22;26535;48.788;9.214;2023-05-10T16:00:09;20.30;85.30
40816;DHT22;26535;48.788;9.214;2023-05-10T16:02:41;20.20;85.80
40816;DHT22;26535;48.788;9.214;2023-05-10T16:05:07;20.30;84.40
40816;DHT22;26535;48.788;9.214;2023-05-10T16:07:34;20.20;86.00
40816;DHT22;26535;48.788;9.214;2023-05-10T16:10:00;20.10;85.40
40816;DHT22;26535;48.788;9.214;2023-05-10T16:12:31;20.00;83.90
40816;DHT22;26535;48.788;9.214;2023-05-10T16:14:56;19.90;82.60
40816;DHT22;26535;48.788;9.214;2023-05-10T16:17:22;19.60;83.70
40816;DHT22;26535;48.788;9.214;2023-05-10T16:19:48;19.60;84.80
40816;DHT22;26535;48.788;9.214;2023-05-10T16:22:13;19.30;84.50
40816;DHT22;26535;48.788;9.214;2023-05-10T16:24:39;19.30;84.90
40816;DHT22;26535;48.788;9.214;2023-05-10T16:27:06;19.20;85.70
40816;DHT22;26535;48.788;9.214;2023-05-10T16:29:31;19.30;88.00
40816;DHT22;26535;48.788;9.214;2023-05-10T16:31:57;19.10;85.00
40816;DHT22;26535;48.788;9.214;2023-05-10T16:34:23;19.10;85.20
40816;DHT22;26535;48.788;9.214;2023-05-10T16:36:49;19.20;86.20
40816;DHT22;26535;48.788;9.214;2023-05-10T16:39:16;19.40;83.90
40816;DHT22;26535;48.788;9.214;2023-05-10T16:41:41;19.20;83.50
40816;DHT22;26535;48.788;9.214;2023-05-10T16:44:07;19.00;84.10
40816;DHT22;26535;48.788;9.214;2023-05-10T16:46:33;18.90;85.70
40816;DHT22;26535;48.788;9.214;2023-05-10T16:48:59;18.80;87.10
40816;DHT22;26535;48.788;9.214;2023-05-10T16:51:25;18.70;86.80
40816;DHT22;26535;48.788;9.214;2023-05-10T16:53:51;18.60;86.90
40816;DHT22;26535;48.788;9.214;2023-05-10T16:56:17;18.50;86.60
40816;DHT22;26535;48.788;9.214;2023-05-10T16:58:43;18.40;87.50
40816;DHT22;26535;48.788;9.214;2023-05-10T17:01:09;18.30;87.30
40816;DHT22;26535;48.788;9.214;2023-05-10T17:03:34;18.10;87.70
40816;DHT22;26535;48.788;9.214;2023-05-10T17:06:00;18.00;87.20
40816;DHT22;26535;48.788;9.214;2023-05-10T17:08:26;17.80;87.20
40816;DHT22;26535;48.788;9.214;2023-05-10T17:10:52;17.70;88.90
40816;DHT22;26535;48.788;9.214;2023-05-10T17:13:18;17.50;88.90
40816;DHT22;26535;48.788;9.214;2023-05-10T17:15:44;17.40;89.60
40816;DHT22;26535;48.788;9.214;2023-05-10T17:18:11;17.30;90.30
40816;DHT22;26535;48.788;9.214;2023-05-10T17:20:37;17.20;90.20
40816;DHT22;26535;48.788;9.214;2023-05-10T17:23:02;17.20;90.20
40816;DHT22;26535;48.788;9.214;2023-05-10T17:25:28;17.10;90.20
40816;DHT22;26535;48.788;9.214;2023-05-10T17:27:54;17.00;90.00
40816;DHT22;26535;48.788;9.214;2023-05-10T17:30:20;17.00;90.40
40816;DHT22;26535;48.788;9.214;2023-05-10T17:32:51;17.00;90.60
40816;DHT22;26535;48.788;9.214;2023-05-10T17:35:19;17.00;91.80
40816;DHT22;26535;48.788;9.214;2023-05-10T17:37:45;17.10;90.70
40816;DHT22;26535;48.788;9.214;2023-05-10T17:40:11;17.10;90.80
40816;DHT22;26535;48.788;9.214;2023-05-10T17:42:37;17.10;90.80
40816;DHT22;26535;48.788;9.214;2023-05-10T17:45:03;17.10;91.40
40816;DHT22;26535;48.788;9.214;2023-05-10T17:47:28;16.90;92.40
40816;DHT22;26535;48.788;9.214;2023-05-10T17:49:54;16.80;92.40
40816;DHT22;26535;48.788;9.214;2023-05-10T17:52:20;16.80;92.40
40816;DHT22;26535;48.788;9.214;2023-05-10T17:54:45;16.80;92.20
40816;DHT22;26535;48.788;9.214;2023-05-10T17:57:11;16.70;92.60
40816;DHT22;26535;48.788;9.214;2023-05-10T17:59:37;16.60;92.50
40816;DHT22;26535;48.788;9.214;2023-05-10T18:02:02;16.60;93.30
40816;DHT22;26535;48.788;9.214;2023-05-10T18:04:28;16.50;93.30
40816;DHT22;26535;48.788;9.214;2023-05-10T18:06:54;16.20;94.10
40816;DHT22;26535;48.788;9.214;2023-05-10T18:09:26;16.30;94.80
40816;DHT22;26535;48.788;9.214;2023-05-10T18:11:52;16.10;94.90
40816;DHT22;26535;48.788;9.214;2023-05-10T18:14:18;16.00;95.10
40816;DHT22;26535;48.788;9.214;2023-05-10T18:16:43;16.00;95.30
40816;DHT22;26535;48.788;9.214;2023-05-10T18:19:09;15.90;95.00
40816;DHT22;26535;48.788;9.214;2023-05-10T18:21:35;15.80;95.60
40816;DHT22;26535;48.788;9.214;2023-05-10T18:24:02;15.70;95.80
40816;DHT22;26535;48.788;9.214;2023-05-10T18:26:27;15.60;96.20
40816;DHT22;26535;48.788;9.214;2023-05-10T18:28:53;15.50;96.40
40816;DHT22;26535;48.788;9.214;2023-05-10T18:31:19;15.50;96.70
40816;DHT22;26535;48.788;9.214;2023-05-10T18:33:45;15.40;96.90
40816;DHT22;26535;48.788;9.214;2023-05-10T18:36:11;15.40;97.20
40816;DHT22;26535;48.788;9.214;2023-05-10T18:38:37;15.30;97.70
40816;DHT22;26535;48.788;9.214;2023-05-10T18:41:03;15.20;98.20
40816;DHT22;26535;48.788;9.214;2023-05-10T18:43:28;15.30;98.40
40816;DHT22;26535;48.788;9.214;2023-05-10T18:45:54;15.20;98.60
40816;DHT22;26535;48.788;9.214;2023-05-10T18:48:20;15.20;98.70
40816;DHT22;26535;48.788;9.214;2023-05-10T18:50:45;15.10;99.00
40816;DHT22;26535;48.788;9.214;2023-05-10T18:53:11;15.00;99.30
40816;DHT22;26535;48.788;9.214;2023-05-10T18:55:37;15.00;99.20
40816;DHT22;26535;48.788;9.214;2023-05-10T18:58:03;14.90;99.30
40816;DHT22;26535;48.788;9.214;2023-05-10T19:00:28;14.80;99.40
40816;DHT22;26535;48.788;9.214;2023-05-10T19:02:54;14.80;99.60
40816;DHT22;26535;48.788;9.214;2023-05-10T19:05:20;14.60;99.70
40816;DHT22;26535;48.788;9.214;2023-05-10T19:07:46;14.60;99.90
40816;DHT22;26535;48.788;9.214;2023-05-10T19:10:11;14.60;99.90
40816;DHT22;26535;48.788;9.214;2023-05-10T19:12:38;14.50;99.90
40816;DHT22;26535;48.788;9.214;2023-05-10T19:15:06;14.50;99.90
40816;DHT22;26535;48.788;9.214;2023-05-10T19:17:32;14.40;99.90
40816;DHT22;26535;48.788;9.214;2023-05-10T19:19:57;14.40;99.90
40816;DHT22;26535;48.788;9.214;2023-05-10T19:22:24;14.40;99.90
40816;DHT22;26535;48.788;9.214;2023-05-10T19:24:50;14.40;99.90
40816;DHT22;26535;48.788;9.214;2023-05-10T19:27:15;14.30;99.90
40816;DHT22;26535;48.788;9.214;2023-05-10T19:29:41;14.30;99.90
40816;DHT22;26535;48.788;9.214;2023-05-10T19:32:07;14.30;99.90
40816;DHT22;26535;48.788;9.214;2023-05-10T19:34:33;14.30;99.90
40816;DHT22;26535;48.788;9.214;2023-05-10T19:36:59;14.20;99.90
40816;DHT22;26535;48.788;9.214;2023-05-10T19:39:24;14.20;99.90
40816;DHT22;26535;48.788;9.214;2023-05-10T19:41:51;14.20;99.90
40816;DHT22;26535;48.788;9.214;2023-05-10T19:44:16;14.20;99.90
40816;DHT22;26535;48.788;9.214;2023-05-10T19:46:42;14.20;99.90
40816;DHT22;26535;48.788;9.214;2023-05-10T19:49:08;14.30;99.90
40816;DHT22;26535;48.788;9.214;2023-05-10T19:51:33;14.30;99.90
40816;DHT22;26535;48.788;9.214;2023-05-10T19:53:59;14.30;99.90
40816;DHT22;26535;48.788;9.214;2023-05-10T19:56:25;14.30;99.90
40816;DHT22;26535;48.788;9.214;2023-05-10T19:58:51;14.30;99.90
40816;DHT22;26535;48.788;9.214;2023-05-10T20:01:17;14.30;99.90
40816;DHT22;26535;48.788;9.214;2023-05-10T20:03:42;14.30;99.90
40816;DHT22;26535;48.788;9.214;2023-05-10T20:06:08;14.30;99.90
40816;DHT22;26535;48.788;9.214;2023-05-10T20:08:34;14.30;99.90
40816;DHT22;26535;48.788;9.214;2023-05-10T20:10:59;14.30;99.90
40816;DHT22;26535;48.788;9.214;2023-05-10T20:13:27;14.20;99.90
40816;DHT22;26535;48.788;9.214;2023-05-10T20:15:56;14.30;99.90
40816;DHT22;26535;48.788;9.214;2023-05-10T20:18:22;14.30;99.90
40816;DHT22;26535;48.788;9.214;2023-05-10T20:20:52;14.30;99.90
40816;DHT22;26535;48.788;9.214;2023-05-10T20:23:18;14.30;99.90
40816;DHT22;26535;48.788;9.214;2023-05-10T20:25:44;14.30;99.90
40816;DHT22;26535;48.788;9.214;2023-05-10T20:28:10;14.20;99.90
40816;DHT22;26535;48.788;9.214;2023-05-10T20:30:37;14.20;99.90
40816;DHT22;26535;48.788;9.214;2023-05-10T20:33:03;14.30;99.90
40816;DHT22;26535;48.788;9.214;2023-05-10T20:35:30;14.30;99.90
40816;DHT22;26535;48.788;9.214;2023-05-10T20:37:56;14.30;99.90